Cajamarca, Peru
Current Conditions -  °F | °C
As of 7:32 AM on Tuesday 27 Jan 2015 (Local Time) from SPJR Reporting Station
Haze Haze  
Wind Chill: 54°   Ceiling: 4000
Heat Index: 54°   Visibility: 4mi
Dew Point: 52°   Wind: 0mph
Humidity: 94%   Direction: NA
Pressure: 30.39"   Gusts: NA
Location:  7.16°S, 78.52°W
Report Text: SPJR 271232Z 00000KT 6000 BR SCT023 OVC040 12/11 Q1029
Loading
Personal Weather Stations






























Interactive Weather Map New forecast layout! Learn more

10-Day Weather Forecast

Advertisements
Track Severe Weather on mobile